sensor_id;sensor_type;location;lat;lon;timestamp;pressure;altitude;pressure_sealevel;temperature;humidity
46087;BME280;31824;49.648;8.640;2023-11-18T00:00:47;101258.91;;;6.37;100.00
46087;BME280;31824;49.648;8.640;2023-11-18T00:03:49;101263.75;;;6.34;100.00
46087;BME280;31824;49.648;8.640;2023-11-18T00:06:52;101258.91;;;6.37;100.00
46087;BME280;31824;49.648;8.640;2023-11-18T00:09:56;101261.50;;;6.37;100.00
46087;BME280;31824;49.648;8.640;2023-11-18T00:12:58;101265.78;;;6.36;100.00
46087;BME280;31824;49.648;8.640;2023-11-18T00:15:59;101267.09;;;6.40;100.00
46087;BME280;31824;49.648;8.640;2023-11-18T00:19:01;101266.19;;;6.39;100.00
46087;BME280;31824;49.648;8.640;2023-11-18T00:22:04;101259.81;;;6.37;100.00
46087;BME280;31824;49.648;8.640;2023-11-18T00:25:08;101256.09;;;6.35;100.00
46087;BME280;31824;49.648;8.640;2023-11-18T00:28:11;101256.47;;;6.38;100.00
46087;BME280;31824;49.648;8.640;2023-11-18T00:31:13;101252.38;;;6.40;100.00
46087;BME280;31824;49.648;8.640;2023-11-18T00:34:15;101254.78;;;6.39;100.00
46087;BME280;31824;49.648;8.640;2023-11-18T00:37:18;101254.41;;;6.36;100.00
46087;BME280;31824;49.648;8.640;2023-11-18T00:40:20;101252.34;;;6.33;100.00
46087;BME280;31824;49.648;8.640;2023-11-18T00:43:23;101249.53;;;6.32;100.00
46087;BME280;31824;49.648;8.640;2023-11-18T00:46:24;101250.81;;;6.28;100.00
46087;BME280;31824;49.648;8.640;2023-11-18T00:49:26;101249.72;;;6.26;100.00
46087;BME280;31824;49.648;8.640;2023-11-18T00:52:29;101246.91;;;6.24;100.00
46087;BME280;31824;49.648;8.640;2023-11-18T00:55:31;101254.69;;;6.17;100.00
46087;BME280;31824;49.648;8.640;2023-11-18T00:58:33;101252.31;;;6.19;100.00
46087;BME280;31824;49.648;8.640;2023-11-18T01:01:40;101255.25;;;6.15;100.00
46087;BME280;31824;49.648;8.640;2023-11-18T01:04:42;101256.34;;;6.10;100.00
46087;BME280;31824;49.648;8.640;2023-11-18T01:07:45;101268.66;;;6.11;100.00
46087;BME280;31824;49.648;8.640;2023-11-18T01:10:48;101262.66;;;6.04;100.00
46087;BME280;31824;49.648;8.640;2023-11-18T01:13:49;101270.63;;;5.99;100.00
46087;BME280;31824;49.648;8.640;2023-11-18T01:16:51;101276.03;;;6.00;100.00
46087;BME280;31824;49.648;8.640;2023-11-18T01:19:54;101283.97;;;5.95;100.00
46087;BME280;31824;49.648;8.640;2023-11-18T01:22:58;101273.25;;;5.99;100.00
46087;BME280;31824;49.648;8.640;2023-11-18T01:26:00;101275.13;;;6.00;100.00
46087;BME280;31824;49.648;8.640;2023-11-18T01:29:02;101275.63;;;5.97;100.00
46087;BME280;31824;49.648;8.640;2023-11-18T01:32:05;101270.22;;;5.96;100.00
46087;BME280;31824;49.648;8.640;2023-11-18T01:35:11;101262.94;;;5.93;100.00
46087;BME280;31824;49.648;8.640;2023-11-18T01:38:15;101264.53;;;5.85;100.00
46087;BME280;31824;49.648;8.640;2023-11-18T01:41:16;101266.56;;;5.81;100.00
46087;BME280;31824;49.648;8.640;2023-11-18T01:44:19;101271.19;;;5.76;100.00
46087;BME280;31824;49.648;8.640;2023-11-18T01:47:21;101276.09;;;5.60;100.00
46087;BME280;31824;49.648;8.640;2023-11-18T01:50:23;101270.63;;;5.51;100.00
46087;BME280;31824;49.648;8.640;2023-11-18T01:53:26;101267.63;;;5.48;100.00
46087;BME280;31824;49.648;8.640;2023-11-18T01:56:28;101267.63;;;5.48;100.00
46087;BME280;31824;49.648;8.640;2023-11-18T01:59:30;101262.22;;;5.47;100.00
46087;BME280;31824;49.648;8.640;2023-11-18T02:02:32;101264.50;;;5.51;100.00
46087;BME280;31824;49.648;8.640;2023-11-18T02:05:36;101271.38;;;5.30;100.00
46087;BME280;31824;49.648;8.640;2023-11-18T02:08:40;101271.66;;;5.19;100.00
46087;BME280;31824;49.648;8.640;2023-11-18T02:11:46;101272.03;;;5.22;100.00
46087;BME280;31824;49.648;8.640;2023-11-18T02:14:54;101271.41;;;5.10;100.00
46087;BME280;31824;49.648;8.640;2023-11-18T02:17:57;101278.38;;;5.04;100.00
46087;BME280;31824;49.648;8.640;2023-11-18T02:20:59;101287.25;;;4.99;100.00
46087;BME280;31824;49.648;8.640;2023-11-18T02:24:04;101282.84;;;4.85;100.00
46087;BME280;31824;49.648;8.640;2023-11-18T02:27:07;101279.84;;;4.82;100.00
46087;BME280;31824;49.648;8.640;2023-11-18T02:30:14;101276.84;;;4.66;100.00
46087;BME280;31824;49.648;8.640;2023-11-18T02:33:22;101282.47;;;4.69;100.00
46087;BME280;31824;49.648;8.640;2023-11-18T02:36:31;101282.50;;;4.56;100.00
46087;BME280;31824;49.648;8.640;2023-11-18T02:39:39;101272.31;;;4.45;100.00
46087;BME280;31824;49.648;8.640;2023-11-18T02:42:46;101275.47;;;4.42;100.00
46087;BME280;31824;49.648;8.640;2023-11-18T02:45:51;101287.19;;;4.46;100.00
46087;BME280;31824;49.648;8.640;2023-11-18T02:48:53;101284.53;;;4.38;100.00
46087;BME280;31824;49.648;8.640;2023-11-18T02:51:57;101281.81;;;4.44;100.00
46087;BME280;31824;49.648;8.640;2023-11-18T02:54:59;101281.59;;;4.43;100.00
46087;BME280;31824;49.648;8.640;2023-11-18T02:58:02;101277.75;;;4.46;100.00
46087;BME280;31824;49.648;8.640;2023-11-18T03:01:07;101278.06;;;4.42;100.00
46087;BME280;31824;49.648;8.640;2023-11-18T03:04:09;101282.25;;;4.34;100.00
46087;BME280;31824;49.648;8.640;2023-11-18T03:07:11;101270.34;;;4.36;100.00
46087;BME280;31824;49.648;8.640;2023-11-18T03:10:13;101273.00;;;4.23;100.00
46087;BME280;31824;49.648;8.640;2023-11-18T03:13:24;101267.47;;;4.28;100.00
46087;BME280;31824;49.648;8.640;2023-11-18T03:16:26;101259.16;;;4.17;100.00
46087;BME280;31824;49.648;8.640;2023-11-18T03:19:27;101266.75;;;4.16;100.00
46087;BME280;31824;49.648;8.640;2023-11-18T03:22:30;101251.47;;;4.12;100.00
46087;BME280;31824;49.648;8.640;2023-11-18T03:25:33;101257.94;;;4.08;100.00
46087;BME280;31824;49.648;8.640;2023-11-18T03:28:36;101257.69;;;4.06;100.00
46087;BME280;31824;49.648;8.640;2023-11-18T03:31:38;101269.16;;;3.88;100.00
46087;BME280;31824;49.648;8.640;2023-11-18T03:34:40;101264.38;;;3.92;100.00
46087;BME280;31824;49.648;8.640;2023-11-18T03:37:41;101259.09;;;3.97;100.00
46087;BME280;31824;49.648;8.640;2023-11-18T03:40:45;101256.38;;;4.03;100.00
46087;BME280;31824;49.648;8.640;2023-11-18T03:43:49;101264.78;;;4.08;100.00
46087;BME280;31824;49.648;8.640;2023-11-18T03:46:51;101264.28;;;3.97;100.00
46087;BME280;31824;49.648;8.640;2023-11-18T03:49:52;101252.63;;;4.01;100.00
46087;BME280;31824;49.648;8.640;2023-11-18T03:52:55;101266.56;;;4.01;100.00
46087;BME280;31824;49.648;8.640;2023-11-18T03:55:57;101265.09;;;4.03;100.00
46087;BME280;31824;49.648;8.640;2023-11-18T03:59:00;101272.69;;;4.02;100.00
46087;BME280;31824;49.648;8.640;2023-11-18T04:02:02;101269.78;;;4.06;100.00
46087;BME280;31824;49.648;8.640;2023-11-18T04:05:05;101286.09;;;4.05;100.00
46087;BME280;31824;49.648;8.640;2023-11-18T04:08:07;101277.78;;;4.08;100.00
46087;BME280;31824;49.648;8.640;2023-11-18T04:11:08;101264.59;;;4.06;100.00
46087;BME280;31824;49.648;8.640;2023-11-18T04:14:12;101271.44;;;4.18;100.00
46087;BME280;31824;49.648;8.640;2023-11-18T04:17:15;101264.59;;;4.19;100.00
46087;BME280;31824;49.648;8.640;2023-11-18T04:20:18;101263.63;;;4.18;100.00
46087;BME280;31824;49.648;8.640;2023-11-18T04:23:19;101258.81;;;4.21;100.00
46087;BME280;31824;49.648;8.640;2023-11-18T04:26:21;101262.34;;;4.35;100.00
46087;BME280;31824;49.648;8.640;2023-11-18T04:29:24;101251.63;;;4.39;100.00
46087;BME280;31824;49.648;8.640;2023-11-18T04:32:28;101239.13;;;4.36;100.00
46087;BME280;31824;49.648;8.640;2023-11-18T04:35:29;101243.34;;;4.29;100.00
46087;BME280;31824;49.648;8.640;2023-11-18T04:38:32;101243.41;;;4.49;100.00
46087;BME280;31824;49.648;8.640;2023-11-18T04:41:33;101244.13;;;4.48;100.00
46087;BME280;31824;49.648;8.640;2023-11-18T04:44:37;101251.88;;;4.61;100.00
46087;BME280;31824;49.648;8.640;2023-11-18T04:47:40;101248.44;;;4.67;100.00
46087;BME280;31824;49.648;8.640;2023-11-18T04:50:43;101245.88;;;4.74;100.00
46087;BME280;31824;49.648;8.640;2023-11-18T04:53:45;101242.03;;;4.78;100.00
46087;BME280;31824;49.648;8.640;2023-11-18T04:56:47;101242.66;;;4.83;100.00
46087;BME280;31824;49.648;8.640;2023-11-18T04:59:50;101250.78;;;4.99;100.00
46087;BME280;31824;49.648;8.640;2023-11-18T05:02:53;101255.28;;;5.00;100.00
46087;BME280;31824;49.648;8.640;2023-11-18T05:05:55;101259.38;;;4.98;100.00
46087;BME280;31824;49.648;8.640;2023-11-18T05:08:59;101264.78;;;4.99;100.00
46087;BME280;31824;49.648;8.640;2023-11-18T05:12:00;101263.63;;;4.97;100.00
46087;BME280;31824;49.648;8.640;2023-11-18T05:15:05;101253.53;;;4.93;100.00
46087;BME280;31824;49.648;8.640;2023-11-18T05:18:09;101250.16;;;4.87;100.00
46087;BME280;31824;49.648;8.640;2023-11-18T05:21:13;101257.53;;;4.84;100.00
46087;BME280;31824;49.648;8.640;2023-11-18T05:24:15;101254.13;;;4.78;100.00
46087;BME280;31824;49.648;8.640;2023-11-18T05:27:17;101240.78;;;4.82;100.00
46087;BME280;31824;49.648;8.640;2023-11-18T05:30:20;101245.16;;;4.76;100.00
46087;BME280;31824;49.648;8.640;2023-11-18T05:33:24;101255.19;;;4.72;100.00
46087;BME280;31824;49.648;8.640;2023-11-18T05:36:27;101248.03;;;4.64;100.00
46087;BME280;31824;49.648;8.640;2023-11-18T05:39:31;101238.66;;;4.59;100.00
46087;BME280;31824;49.648;8.640;2023-11-18T05:42:35;101240.38;;;4.46;100.00
46087;BME280;31824;49.648;8.640;2023-11-18T05:45:42;101228.31;;;4.33;100.00
46087;BME280;31824;49.648;8.640;2023-11-18T05:49:04;101222.59;;;4.36;100.00
46087;BME280;31824;49.648;8.640;2023-11-18T05:52:09;101233.41;;;4.39;100.00
46087;BME280;31824;49.648;8.640;2023-11-18T05:55:11;101229.56;;;4.43;100.00
46087;BME280;31824;49.648;8.640;2023-11-18T05:58:13;101231.50;;;4.51;100.00
46087;BME280;31824;49.648;8.640;2023-11-18T06:01:17;101222.00;;;4.64;100.00
46087;BME280;31824;49.648;8.640;2023-11-18T06:04:19;101229.41;;;4.81;100.00
46087;BME280;31824;49.648;8.640;2023-11-18T06:07:21;101237.78;;;4.99;100.00
46087;BME280;31824;49.648;8.640;2023-11-18T06:10:23;101231.03;;;5.14;100.00
46087;BME280;31824;49.648;8.640;2023-11-18T06:13:26;101236.00;;;5.25;100.00
46087;BME280;31824;49.648;8.640;2023-11-18T06:16:30;101244.19;;;5.28;100.00
46087;BME280;31824;49.648;8.640;2023-11-18T06:19:32;101243.03;;;5.26;100.00
46087;BME280;31824;49.648;8.640;2023-11-18T06:22:34;101242.25;;;5.20;100.00
46087;BME280;31824;49.648;8.640;2023-11-18T06:25:36;101246.94;;;5.22;100.00
46087;BME280;31824;49.648;8.640;2023-11-18T06:28:38;101251.00;;;5.20;100.00
46087;BME280;31824;49.648;8.640;2023-11-18T06:31:42;101247.47;;;5.20;100.00
46087;BME280;31824;49.648;8.640;2023-11-18T06:34:44;101246.75;;;5.21;100.00
46087;BME280;31824;49.648;8.640;2023-11-18T06:37:46;101245.66;;;5.26;100.00
46087;BME280;31824;49.648;8.640;2023-11-18T06:40:49;101230.16;;;5.40;100.00
46087;BME280;31824;49.648;8.640;2023-11-18T06:43:54;101221.44;;;5.47;100.00
46087;BME280;31824;49.648;8.640;2023-11-18T06:46:57;101233.75;;;5.48;100.00
46087;BME280;31824;49.648;8.640;2023-11-18T06:49:59;101236.34;;;5.48;100.00
46087;BME280;31824;49.648;8.640;2023-11-18T06:53:00;101238.97;;;5.48;100.00
46087;BME280;31824;49.648;8.640;2023-11-18T06:56:03;101251.84;;;5.54;100.00
46087;BME280;31824;49.648;8.640;2023-11-18T06:59:05;101250.34;;;5.56;100.00
46087;BME280;31824;49.648;8.640;2023-11-18T07:02:09;101248.75;;;5.64;100.00
46087;BME280;31824;49.648;8.640;2023-11-18T07:05:11;101243.56;;;5.71;100.00
46087;BME280;31824;49.648;8.640;2023-11-18T07:08:14;101248.97;;;5.72;100.00
46087;BME280;31824;49.648;8.640;2023-11-18T07:11:16;101260.56;;;5.74;100.00
46087;BME280;31824;49.648;8.640;2023-11-18T07:14:18;101267.66;;;5.75;100.00
46087;BME280;31824;49.648;8.640;2023-11-18T07:17:21;101258.88;;;5.75;100.00
46087;BME280;31824;49.648;8.640;2023-11-18T07:20:23;101248.25;;;5.73;100.00
46087;BME280;31824;49.648;8.640;2023-11-18T07:23:25;101253.84;;;5.77;100.00
46087;BME280;31824;49.648;8.640;2023-11-18T07:26:28;101243.28;;;5.82;100.00
46087;BME280;31824;49.648;8.640;2023-11-18T07:29:29;101243.69;;;5.85;100.00
46087;BME280;31824;49.648;8.640;2023-11-18T07:32:32;101242.75;;;5.85;100.00
46087;BME280;31824;49.648;8.640;2023-11-18T07:35:35;101253.22;;;5.92;100.00
46087;BME280;31824;49.648;8.640;2023-11-18T07:38:39;101252.84;;;5.89;100.00
46087;BME280;31824;49.648;8.640;2023-11-18T07:41:41;101262.28;;;5.81;100.00
46087;BME280;31824;49.648;8.640;2023-11-18T07:44:42;101275.91;;;5.86;100.00
46087;BME280;31824;49.648;8.640;2023-11-18T07:47:45;101281.19;;;5.93;100.00
46087;BME280;31824;49.648;8.640;2023-11-18T07:50:50;101262.50;;;5.90;100.00
46087;BME280;31824;49.648;8.640;2023-11-18T07:53:54;101250.97;;;5.88;100.00
46087;BME280;31824;49.648;8.640;2023-11-18T07:56:56;101265.13;;;5.90;100.00
46087;BME280;31824;49.648;8.640;2023-11-18T07:59:58;101249.28;;;5.88;100.00
46087;BME280;31824;49.648;8.640;2023-11-18T08:03:15;101253.91;;;5.84;100.00
46087;BME280;31824;49.648;8.640;2023-11-18T08:06:17;101251.72;;;5.94;100.00
46087;BME280;31824;49.648;8.640;2023-11-18T08:09:18;101265.00;;;5.96;100.00
46087;BME280;31824;49.648;8.640;2023-11-18T08:12:25;101266.16;;;5.98;100.00
46087;BME280;31824;49.648;8.640;2023-11-18T08:15:26;101263.91;;;6.01;100.00
46087;BME280;31824;49.648;8.640;2023-11-18T08:18:32;101270.13;;;6.08;100.00
46087;BME280;31824;49.648;8.640;2023-11-18T08:21:34;101260.41;;;6.07;100.00
46087;BME280;31824;49.648;8.640;2023-11-18T08:24:36;101263.03;;;6.07;100.00
46087;BME280;31824;49.648;8.640;2023-11-18T08:27:39;101270.84;;;6.07;100.00
46087;BME280;31824;49.648;8.640;2023-11-18T08:30:41;101275.16;;;6.07;100.00
46087;BME280;31824;49.648;8.640;2023-11-18T08:33:44;101272.91;;;6.10;100.00
46087;BME280;31824;49.648;8.640;2023-11-18T08:36:48;101257.66;;;6.13;100.00
46087;BME280;31824;49.648;8.640;2023-11-18T08:39:49;101256.03;;;6.21;100.00
46087;BME280;31824;49.648;8.640;2023-11-18T08:42:52;101257.91;;;6.22;100.00
46087;BME280;31824;49.648;8.640;2023-11-18T08:45:55;101250.06;;;6.22;100.00
46087;BME280;31824;49.648;8.640;2023-11-18T08:48:59;101263.50;;;6.25;100.00
46087;BME280;31824;49.648;8.640;2023-11-18T08:52:07;101263.50;;;6.25;100.00
46087;BME280;31824;49.648;8.640;2023-11-18T08:55:11;101264.84;;;6.29;100.00
46087;BME280;31824;49.648;8.640;2023-11-18T08:58:19;101258.06;;;6.16;100.00
46087;BME280;31824;49.648;8.640;2023-11-18T09:01:23;101254.94;;;6.26;100.00
46087;BME280;31824;49.648;8.640;2023-11-18T09:04:33;101253.31;;;6.34;100.00
46087;BME280;31824;49.648;8.640;2023-11-18T09:07:35;101258.00;;;6.44;100.00
46087;BME280;31824;49.648;8.640;2023-11-18T09:10:38;101246.84;;;6.52;100.00
46087;BME280;31824;49.648;8.640;2023-11-18T09:13:42;101232.47;;;6.55;100.00
46087;BME280;31824;49.648;8.640;2023-11-18T09:16:46;101233.25;;;6.69;100.00
46087;BME280;31824;49.648;8.640;2023-11-18T09:19:49;101236.47;;;6.81;100.00
46087;BME280;31824;49.648;8.640;2023-11-18T09:22:52;101235.69;;;6.74;100.00
46087;BME280;31824;49.648;8.640;2023-11-18T09:25:57;101239.44;;;6.76;100.00
46087;BME280;31824;49.648;8.640;2023-11-18T09:29:00;101244.13;;;6.86;100.00
46087;BME280;31824;49.648;8.640;2023-11-18T09:32:04;101242.47;;;6.94;100.00
46087;BME280;31824;49.648;8.640;2023-11-18T09:35:09;101244.16;;;7.01;100.00
46087;BME280;31824;49.648;8.640;2023-11-18T09:38:14;101236.50;;;7.02;100.00
46087;BME280;31824;49.648;8.640;2023-11-18T09:41:16;101247.34;;;7.20;100.00
46087;BME280;31824;49.648;8.640;2023-11-18T09:44:18;101234.84;;;7.17;100.00
46087;BME280;31824;49.648;8.640;2023-11-18T09:47:21;101232.22;;;7.24;100.00
46087;BME280;31824;49.648;8.640;2023-11-18T09:50:30;101242.88;;;7.33;100.00
46087;BME280;31824;49.648;8.640;2023-11-18T09:53:37;101251.66;;;7.34;100.00
46087;BME280;31824;49.648;8.640;2023-11-18T09:56:47;101242.31;;;7.21;100.00
46087;BME280;31824;49.648;8.640;2023-11-18T10:00:02;101236.53;;;7.24;100.00
46087;BME280;31824;49.648;8.640;2023-11-18T10:03:28;101241.00;;;7.18;100.00
46087;BME280;31824;49.648;8.640;2023-11-18T10:06:34;101240.63;;;7.22;100.00
46087;BME280;31824;49.648;8.640;2023-11-18T10:09:36;101242.50;;;7.23;100.00
46087;BME280;31824;49.648;8.640;2023-11-18T10:12:45;101233.34;;;7.26;100.00
46087;BME280;31824;49.648;8.640;2023-11-18T10:15:47;101231.31;;;7.24;100.00
46087;BME280;31824;49.648;8.640;2023-11-18T10:18:54;101230.56;;;7.32;100.00
46087;BME280;31824;49.648;8.640;2023-11-18T10:22:03;101224.78;;;7.28;100.00
46087;BME280;31824;49.648;8.640;2023-11-18T10:25:06;101232.06;;;7.37;100.00
46087;BME280;31824;49.648;8.640;2023-11-18T10:28:08;101241.56;;;7.37;100.00
46087;BME280;31824;49.648;8.640;2023-11-18T10:31:18;101236.88;;;7.34;100.00
46087;BME280;31824;49.648;8.640;2023-11-18T10:34:20;101235.03;;;7.33;100.00
46087;BME280;31824;49.648;8.640;2023-11-18T10:37:24;101237.84;;;7.35;100.00
46087;BME280;31824;49.648;8.640;2023-11-18T10:40:26;101238.41;;;7.32;100.00
46087;BME280;31824;49.648;8.640;2023-11-18T10:43:29;101227.19;;;7.40;100.00
46087;BME280;31824;49.648;8.640;2023-11-18T10:46:31;101220.25;;;7.41;100.00
46087;BME280;31824;49.648;8.640;2023-11-18T10:49:33;101212.03;;;7.45;100.00
46087;BME280;31824;49.648;8.640;2023-11-18T10:52:40;101202.16;;;7.50;100.00
46087;BME280;31824;49.648;8.640;2023-11-18T10:55:43;101196.72;;;7.55;100.00
46087;BME280;31824;49.648;8.640;2023-11-18T10:58:45;101201.75;;;7.61;100.00
46087;BME280;31824;49.648;8.640;2023-11-18T11:01:47;101206.97;;;7.68;100.00
46087;BME280;31824;49.648;8.640;2023-11-18T11:04:51;101197.66;;;7.70;100.00
46087;BME280;31824;49.648;8.640;2023-11-18T11:07:56;101197.47;;;7.69;100.00
46087;BME280;31824;49.648;8.640;2023-11-18T11:10:59;101197.28;;;7.67;100.00
46087;BME280;31824;49.648;8.640;2023-11-18T11:14:06;101188.88;;;7.70;100.00
46087;BME280;31824;49.648;8.640;2023-11-18T11:20:04;101177.81;;;7.72;100.00
46087;BME280;31824;49.648;8.640;2023-11-18T11:23:31;101170.75;;;7.64;100.00
46087;BME280;31824;49.648;8.640;2023-11-18T11:27:05;101165.50;;;7.64;100.00
46087;BME280;31824;49.648;8.640;2023-11-18T11:30:17;101162.16;;;7.65;100.00
46087;BME280;31824;49.648;8.640;2023-11-18T11:33:26;101150.19;;;7.60;100.00
46087;BME280;31824;49.648;8.640;2023-11-18T11:36:37;101144.44;;;7.55;100.00
46087;BME280;31824;49.648;8.640;2023-11-18T11:39:43;101126.88;;;7.54;100.00
46087;BME280;31824;49.648;8.640;2023-11-18T11:42:49;101125.78;;;7.52;100.00
46087;BME280;31824;49.648;8.640;2023-11-18T11:45:57;101112.88;;;7.54;100.00
46087;BME280;31824;49.648;8.640;2023-11-18T11:49:00;101118.06;;;7.61;100.00
46087;BME280;31824;49.648;8.640;2023-11-18T11:52:09;101112.84;;;7.61;100.00
46087;BME280;31824;49.648;8.640;2023-11-18T11:55:18;101105.34;;;7.64;100.00
46087;BME280;31824;49.648;8.640;2023-11-18T11:58:26;101094.50;;;7.68;100.00
46087;BME280;31824;49.648;8.640;2023-11-18T12:01:35;101082.22;;;7.67;100.00
46087;BME280;31824;49.648;8.640;2023-11-18T12:04:39;101082.56;;;7.70;100.00
46087;BME280;31824;49.648;8.640;2023-11-18T12:07:45;101081.03;;;7.72;100.00
46087;BME280;31824;49.648;8.640;2023-11-18T12:10:51;101077.69;;;7.73;100.00
46087;BME280;31824;49.648;8.640;2023-11-18T12:14:02;101071.53;;;7.73;100.00
46087;BME280;31824;49.648;8.640;2023-11-18T12:17:14;101068.53;;;7.77;100.00
46087;BME280;31824;49.648;8.640;2023-11-18T12:20:38;101069.25;;;7.76;100.00
46087;BME280;31824;49.648;8.640;2023-11-18T12:24:15;101072.84;;;7.76;100.00
46087;BME280;31824;49.648;8.640;2023-11-18T12:27:40;101072.78;;;7.84;100.00
46087;BME280;31824;49.648;8.640;2023-11-18T12:30:44;101063.59;;;7.87;100.00
46087;BME280;31824;49.648;8.640;2023-11-18T12:34:01;101056.69;;;7.88;100.00
46087;BME280;31824;49.648;8.640;2023-11-18T12:37:40;101055.00;;;7.88;100.00
46087;BME280;31824;49.648;8.640;2023-11-18T12:43:02;101049.06;;;7.82;100.00
46087;BME280;31824;49.648;8.640;2023-11-18T12:46:26;101037.25;;;7.86;100.00
46087;BME280;31824;49.648;8.640;2023-11-18T12:49:55;101042.88;;;7.82;100.00
46087;BME280;31824;49.648;8.640;2023-11-18T12:53:16;101029.25;;;7.84;100.00
46087;BME280;31824;49.648;8.640;2023-11-18T12:56:38;101020.06;;;7.88;100.00
46087;BME280;31824;49.648;8.640;2023-11-18T12:59:43;101012.22;;;7.88;100.00
46087;BME280;31824;49.648;8.640;2023-11-18T13:02:45;101021.00;;;7.88;100.00
46087;BME280;31824;49.648;8.640;2023-11-18T13:05:47;101012.22;;;7.88;100.00
46087;BME280;31824;49.648;8.640;2023-11-18T13:08:50;100998.97;;;7.86;100.00
46087;BME280;31824;49.648;8.640;2023-11-18T13:11:53;100988.13;;;7.83;100.00
46087;BME280;31824;49.648;8.640;2023-11-18T13:14:59;100981.81;;;7.81;100.00
46087;BME280;31824;49.648;8.640;2023-11-18T13:18:02;100978.97;;;7.87;100.00
46087;BME280;31824;49.648;8.640;2023-11-18T13:21:13;100971.69;;;7.84;100.00
46087;BME280;31824;49.648;8.640;2023-11-18T13:24:15;100958.59;;;7.84;100.00
46087;BME280;31824;49.648;8.640;2023-11-18T13:27:18;100947.41;;;7.85;100.00
46087;BME280;31824;49.648;8.640;2023-11-18T13:33:22;100941.59;;;7.88;100.00
46087;BME280;31824;49.648;8.640;2023-11-18T13:36:24;100934.25;;;7.92;100.00
46087;BME280;31824;49.648;8.640;2023-11-18T13:39:27;100921.56;;;7.88;100.00
46087;BME280;31824;49.648;8.640;2023-11-18T13:42:29;100922.53;;;7.89;100.00
46087;BME280;31824;49.648;8.640;2023-11-18T13:45:31;100913.16;;;7.91;100.00
46087;BME280;31824;49.648;8.640;2023-11-18T13:48:41;100915.19;;;7.93;100.00
46087;BME280;31824;49.648;8.640;2023-11-18T13:51:43;100907.84;;;7.98;100.00
46087;BME280;31824;49.648;8.640;2023-11-18T13:54:46;100897.38;;;7.98;100.00
46087;BME280;31824;49.648;8.640;2023-11-18T13:57:49;100900.81;;;7.90;100.00
46087;BME280;31824;49.648;8.640;2023-11-18T14:00:51;100910.38;;;7.89;100.00
46087;BME280;31824;49.648;8.640;2023-11-18T14:03:54;100906.94;;;7.98;100.00
46087;BME280;31824;49.648;8.640;2023-11-18T14:06:57;100899.84;;;7.97;100.00
46087;BME280;31824;49.648;8.640;2023-11-18T14:10:00;100896.97;;;8.02;100.00
46087;BME280;31824;49.648;8.640;2023-11-18T14:13:03;100881.91;;;8.00;100.00
46087;BME280;31824;49.648;8.640;2023-11-18T14:16:07;100872.34;;;8.00;100.00
46087;BME280;31824;49.648;8.640;2023-11-18T14:19:13;100872.81;;;7.89;100.00
46087;BME280;31824;49.648;8.640;2023-11-18T14:22:14;100856.41;;;7.83;100.00
46087;BME280;31824;49.648;8.640;2023-11-18T14:25:16;100885.91;;;7.89;100.00
46087;BME280;31824;49.648;8.640;2023-11-18T14:28:18;100865.25;;;7.99;100.00
46087;BME280;31824;49.648;8.640;2023-11-18T14:31:24;100878.31;;;7.99;100.00
46087;BME280;31824;49.648;8.640;2023-11-18T14:34:28;100876.25;;;8.04;100.00
46087;BME280;31824;49.648;8.640;2023-11-18T14:37:29;100879.44;;;8.01;100.00
46087;BME280;31824;49.648;8.640;2023-11-18T14:40:31;100892.38;;;8.00;100.00
46087;BME280;31824;49.648;8.640;2023-11-18T14:43:34;100891.00;;;8.03;100.00
46087;BME280;31824;49.648;8.640;2023-11-18T14:46:35;100901.13;;;8.00;100.00
46087;BME280;31824;49.648;8.640;2023-11-18T14:49:43;100894.75;;;8.05;100.00
46087;BME280;31824;49.648;8.640;2023-11-18T14:52:45;100893.78;;;8.05;100.00
46087;BME280;31824;49.648;8.640;2023-11-18T14:55:47;100899.19;;;8.06;100.00
46087;BME280;31824;49.648;8.640;2023-11-18T14:58:49;100893.28;;;8.00;100.00
46087;BME280;31824;49.648;8.640;2023-11-18T15:01:51;100889.34;;;8.04;100.00
46087;BME280;31824;49.648;8.640;2023-11-18T15:04:59;100890.66;;;8.00;100.00
46087;BME280;31824;49.648;8.640;2023-11-18T15:08:01;100886.59;;;7.95;100.00
46087;BME280;31824;49.648;8.640;2023-11-18T15:11:03;100888.69;;;7.90;100.00
46087;BME280;31824;49.648;8.640;2023-11-18T15:14:08;100885.69;;;7.87;100.00
46087;BME280;31824;49.648;8.640;2023-11-18T15:17:13;100884.44;;;7.84;100.00
46087;BME280;31824;49.648;8.640;2023-11-18T15:20:17;100898.50;;;7.77;100.00
46087;BME280;31824;49.648;8.640;2023-11-18T15:23:24;100892.34;;;7.76;100.00
46087;BME280;31824;49.648;8.640;2023-11-18T15:26:27;100886.00;;;7.74;100.00
46087;BME280;31824;49.648;8.640;2023-11-18T15:29:29;100884.72;;;7.71;100.00
46087;BME280;31824;49.648;8.640;2023-11-18T15:32:39;100875.44;;;7.66;100.00
46087;BME280;31824;49.648;8.640;2023-11-18T15:35:43;100874.00;;;7.53;100.00
46087;BME280;31824;49.648;8.640;2023-11-18T15:38:45;100857.63;;;7.47;100.00
46087;BME280;31824;49.648;8.640;2023-11-18T15:41:48;100839.16;;;7.38;100.00
46087;BME280;31824;49.648;8.640;2023-11-18T15:44:49;100838.31;;;7.31;100.00
46087;BME280;31824;49.648;8.640;2023-11-18T15:47:51;100825.81;;;7.28;100.00
46087;BME280;31824;49.648;8.640;2023-11-18T15:50:54;100826.38;;;7.25;100.00
46087;BME280;31824;49.648;8.640;2023-11-18T15:54:00;100801.69;;;7.07;100.00
46087;BME280;31824;49.648;8.640;2023-11-18T15:57:02;100797.31;;;7.15;100.00
46087;BME280;31824;49.648;8.640;2023-11-18T16:00:05;100800.81;;;7.23;100.00
46087;BME280;31824;49.648;8.640;2023-11-18T16:03:09;100781.47;;;7.14;100.00
46087;BME280;31824;49.648;8.640;2023-11-18T16:06:12;100767.16;;;7.10;100.00
46087;BME280;31824;49.648;8.640;2023-11-18T16:09:15;100771.19;;;7.15;100.00
46087;BME280;31824;49.648;8.640;2023-11-18T16:12:16;100774.03;;;7.09;100.00